createdAt,value
2023-05-10T00:00:35.939Z,953.1638
2023-05-10T00:01:36.985Z,953.1792
2023-05-10T00:02:38.216Z,953.1815
2023-05-10T00:03:39.263Z,953.1923
2023-05-10T00:04:40.284Z,953.2000
2023-05-10T00:05:41.391Z,953.2216
2023-05-10T00:06:42.442Z,953.2085
2023-05-10T00:07:43.528Z,953.2292
2023-05-10T00:08:44.617Z,953.2246
2023-05-10T00:09:45.705Z,953.2161
2023-05-10T00:10:46.818Z,953.2131
2023-05-10T00:11:47.888Z,953.2015
2023-05-10T00:12:49.052Z,953.1954
2023-05-10T00:13:50.070Z,953.2085
2023-05-10T00:14:51.164Z,953.2154
2023-05-10T00:15:52.245Z,953.2346
2023-05-10T00:16:53.522Z,953.2415
2023-05-10T00:17:54.485Z,953.2515
2023-05-10T00:18:55.548Z,953.2523
2023-05-10T00:19:56.610Z,953.2508
2023-05-10T00:20:57.735Z,953.2454
2023-05-10T00:21:58.798Z,953.2639
2023-05-10T00:22:59.879Z,953.2639
2023-05-10T00:24:00.987Z,953.2746
2023-05-10T00:25:02.076Z,953.2900
2023-05-10T00:26:03.182Z,953.2592
2023-05-10T00:27:04.231Z,953.2546
2023-05-10T00:28:05.327Z,953.2700
2023-05-10T00:29:06.451Z,953.2808
2023-05-10T00:30:07.516Z,953.2808
2023-05-10T00:31:08.610Z,953.2931
2023-05-10T00:32:09.804Z,953.3100
2023-05-10T00:33:10.869Z,953.2923
2023-05-10T00:34:11.899Z,953.2839
2023-05-10T00:35:12.989Z,953.2854
2023-05-10T00:36:14.097Z,953.3000
2023-05-10T00:37:15.169Z,953.3446
2023-05-10T00:38:16.245Z,953.3561
2023-05-10T00:39:17.353Z,953.3523
2023-05-10T00:40:18.712Z,953.3615
2023-05-10T00:41:19.545Z,953.3708
2023-05-10T00:42:20.611Z,953.3754
2023-05-10T00:43:21.704Z,953.3931
2023-05-10T00:44:22.792Z,953.4138
2023-05-10T00:45:23.904Z,953.4192
2023-05-10T00:46:25.019Z,953.4254
2023-05-10T00:47:26.160Z,953.4446
2023-05-10T00:48:27.166Z,953.4462
2023-05-10T00:49:28.250Z,953.4600
2023-05-10T00:50:29.333Z,953.4669
2023-05-10T00:51:30.473Z,953.4746
2023-05-10T00:52:31.537Z,953.4792
2023-05-10T00:53:32.613Z,953.4746
2023-05-10T00:54:33.705Z,953.4669
2023-05-10T00:55:34.793Z,953.4646
2023-05-10T00:56:35.898Z,953.4623
2023-05-10T00:57:36.962Z,953.4515
2023-05-10T00:58:38.056Z,953.4639
2023-05-10T00:59:39.146Z,953.4408
2023-05-10T01:00:40.234Z,953.4370
2023-05-10T01:01:41.391Z,953.4708
2023-05-10T01:02:42.519Z,953.4838
2023-05-10T01:03:43.488Z,953.4554
2023-05-10T01:04:44.642Z,953.4492
2023-05-10T01:05:45.685Z,953.4654
2023-05-10T01:06:46.775Z,953.4654
2023-05-10T01:07:47.847Z,953.4777
2023-05-10T01:08:48.933Z,953.4869
2023-05-10T01:09:50.032Z,953.4792
2023-05-10T01:10:51.109Z,953.4892
2023-05-10T01:11:52.281Z,953.4923
2023-05-10T01:12:53.366Z,953.5023
2023-05-10T01:13:54.376Z,953.4992
2023-05-10T01:14:55.475Z,953.4938
2023-05-10T01:15:56.593Z,953.4900
2023-05-10T01:16:57.700Z,953.4930
2023-05-10T01:17:58.780Z,953.5062
2023-05-10T01:18:59.856Z,953.5000
2023-05-10T01:20:00.945Z,953.4861
2023-05-10T01:21:02.023Z,953.5038
2023-05-10T01:22:03.123Z,953.5031
2023-05-10T01:23:04.196Z,953.5170
2023-05-10T01:24:05.297Z,953.5223
2023-05-10T01:25:06.355Z,953.5108
2023-05-10T01:26:07.444Z,953.5369
2023-05-10T01:27:08.631Z,953.5546
2023-05-10T01:28:09.629Z,953.5446
2023-05-10T01:29:10.727Z,953.5346
2023-05-10T01:30:22.003Z,953.5423
2023-05-10T01:31:13.933Z,953.5546
2023-05-10T01:32:14.018Z,953.5662
2023-05-10T01:33:15.082Z,953.5746
2023-05-10T01:34:16.160Z,953.5708
2023-05-10T01:35:17.251Z,953.5646
2023-05-10T01:36:18.327Z,953.5554
2023-05-10T01:37:19.440Z,953.5492
2023-05-10T01:38:20.525Z,953.5538
2023-05-10T01:39:21.600Z,953.5615
2023-05-10T01:40:22.672Z,953.5485
2023-05-10T01:41:23.762Z,953.5538
2023-05-10T01:42:24.877Z,953.5638
2023-05-10T01:43:25.935Z,953.5731
2023-05-10T01:44:27.038Z,953.5746
2023-05-10T01:45:28.157Z,953.5884
2023-05-10T01:46:29.233Z,953.5708
2023-05-10T01:47:30.354Z,953.5800
2023-05-10T01:48:31.452Z,953.5800
2023-05-10T01:49:32.483Z,953.5785
2023-05-10T01:50:33.574Z,953.5746
2023-05-10T01:51:34.664Z,953.5754
2023-05-10T01:52:35.754Z,953.5654
2023-05-10T01:53:36.836Z,953.5939
2023-05-10T01:54:37.929Z,953.6208
2023-05-10T01:55:39.038Z,953.6277
2023-05-10T01:56:40.121Z,953.6485
2023-05-10T01:57:41.210Z,953.6584
2023-05-10T01:58:42.309Z,953.6631
2023-05-10T01:59:43.402Z,953.6723
2023-05-10T02:00:44.534Z,953.6830
2023-05-10T02:01:45.573Z,953.6931
2023-05-10T02:02:46.709Z,953.6985
2023-05-10T02:03:47.814Z,953.6892
2023-05-10T02:04:48.853Z,953.6900
2023-05-10T02:05:57.479Z,953.7015
2023-05-10T02:06:51.044Z,953.6934
2023-05-10T02:07:52.169Z,953.6954
2023-05-10T02:08:53.212Z,953.6954
2023-05-10T02:09:54.322Z,953.6800
2023-05-10T02:10:55.407Z,953.6631
2023-05-10T02:11:56.494Z,953.6454
2023-05-10T02:12:57.615Z,953.6377
2023-05-10T02:13:58.703Z,953.6392
2023-05-10T02:14:59.795Z,953.6569
2023-05-10T02:16:00.904Z,953.6523
2023-05-10T02:17:02.082Z,953.6500
2023-05-10T02:18:03.151Z,953.6454
2023-05-10T02:19:04.162Z,953.6315
2023-05-10T02:20:05.232Z,953.6254
2023-05-10T02:21:06.387Z,953.6123
2023-05-10T02:22:07.448Z,953.6146
2023-05-10T02:23:08.538Z,953.6200
2023-05-10T02:24:09.619Z,953.6315
2023-05-10T02:25:10.706Z,953.6215
2023-05-10T02:26:11.802Z,953.6346
2023-05-10T02:27:12.896Z,953.6323
2023-05-10T02:28:14.134Z,953.6377
2023-05-10T02:29:15.160Z,953.6500
2023-05-10T02:30:16.367Z,953.6546
2023-05-10T02:31:17.320Z,953.6715
2023-05-10T02:32:18.518Z,953.6723
2023-05-10T02:33:19.532Z,953.6900
2023-05-10T02:34:20.620Z,953.6931
2023-05-10T02:35:21.699Z,953.7023
2023-05-10T02:36:22.784Z,953.7115
2023-05-10T02:37:23.885Z,953.7085
2023-05-10T02:38:24.968Z,953.7131
2023-05-10T02:39:26.043Z,953.7039
2023-05-10T02:40:28.792Z,953.7062
2023-05-10T02:41:28.242Z,953.6931
2023-05-10T02:42:29.328Z,953.6731
2023-05-10T02:43:30.422Z,953.6653
2023-05-10T02:44:31.543Z,953.6623
2023-05-10T02:45:32.595Z,953.6646
2023-05-10T02:46:33.815Z,953.6677
2023-05-10T02:47:34.811Z,953.6661
2023-05-10T02:48:35.891Z,953.6492
2023-05-10T02:49:36.969Z,953.6246
2023-05-10T02:50:38.062Z,953.5977
2023-05-10T02:51:39.156Z,953.5823
2023-05-10T02:52:40.250Z,953.5731
2023-05-10T02:53:41.405Z,953.5531
2023-05-10T02:54:42.411Z,953.5515
2023-05-10T02:55:43.518Z,953.5523
2023-05-10T02:56:44.605Z,953.5669
2023-05-10T02:57:45.711Z,953.5839
2023-05-10T02:58:46.815Z,953.5916
2023-05-10T02:59:47.898Z,953.5877
2023-05-10T03:00:48.952Z,953.5715
2023-05-10T03:01:50.180Z,953.5515
2023-05-10T03:02:51.175Z,953.5569
2023-05-10T03:03:52.289Z,953.5646
2023-05-10T03:04:53.369Z,953.5708
2023-05-10T03:05:54.441Z,953.5685
2023-05-10T03:06:55.505Z,953.5662
2023-05-10T03:07:56.629Z,953.5746
2023-05-10T03:08:57.709Z,953.5731
2023-05-10T03:09:58.788Z,953.5862
2023-05-10T03:10:59.864Z,953.5992
2023-05-10T03:12:00.961Z,953.6108
2023-05-10T03:13:02.083Z,953.6238
2023-05-10T03:14:03.158Z,953.6346
2023-05-10T03:15:04.219Z,953.6469
2023-05-10T03:16:05.336Z,953.6546
2023-05-10T03:17:06.407Z,953.6615
2023-05-10T03:18:07.616Z,953.6769
2023-05-10T03:19:08.579Z,953.6992
2023-05-10T03:20:09.660Z,953.6970
2023-05-10T03:21:10.739Z,953.7131
2023-05-10T03:22:11.853Z,953.7277
2023-05-10T03:23:12.967Z,953.7323
2023-05-10T03:24:14.038Z,953.7315
2023-05-10T03:25:15.119Z,953.7330
2023-05-10T03:26:16.214Z,953.7377
2023-05-10T03:27:17.300Z,953.7354
2023-05-10T03:28:18.395Z,953.7400
2023-05-10T03:29:19.579Z,953.7415
2023-05-10T03:30:20.576Z,953.7531
2023-05-10T03:31:21.685Z,953.7592
2023-05-10T03:32:22.804Z,953.7430
2023-05-10T03:33:23.861Z,953.7485
2023-05-10T03:34:24.998Z,953.7392
2023-05-10T03:35:26.075Z,953.7354
2023-05-10T03:36:27.154Z,953.7300
2023-05-10T03:37:28.261Z,953.7238
2023-05-10T03:38:30.534Z,953.7338
2023-05-10T03:39:30.405Z,953.7508
2023-05-10T03:40:31.474Z,953.7562
2023-05-10T03:41:32.572Z,953.7415
2023-05-10T03:42:33.685Z,953.7715
2023-05-10T03:43:34.781Z,953.7839
2023-05-10T03:44:35.867Z,953.7800
2023-05-10T03:45:36.943Z,953.7816
2023-05-10T03:46:38.085Z,953.7992
2023-05-10T03:47:39.163Z,953.8100
2023-05-10T03:48:40.240Z,953.8130
2023-05-10T03:49:41.368Z,953.8162
2023-05-10T03:50:42.422Z,953.8270
2023-05-10T03:51:43.495Z,953.8285
2023-05-10T03:52:44.620Z,953.8270
2023-05-10T03:53:45.694Z,953.8331
2023-05-10T03:54:46.807Z,953.8362
2023-05-10T03:55:47.861Z,953.8523
2023-05-10T03:56:49.023Z,953.8669
2023-05-10T03:57:50.053Z,953.8700
2023-05-10T03:58:51.123Z,953.8770
2023-05-10T03:59:52.229Z,953.8730
2023-05-10T04:00:53.335Z,953.8715
2023-05-10T04:01:54.490Z,953.8677
2023-05-10T04:02:55.542Z,953.8715
2023-05-10T04:03:56.665Z,953.8762
2023-05-10T04:04:57.689Z,953.8792
2023-05-10T04:05:58.856Z,953.8723
2023-05-10T04:06:59.868Z,953.8815
2023-05-10T04:08:00.968Z,953.8915
2023-05-10T04:09:02.082Z,953.9008
2023-05-10T04:10:03.174Z,953.9031
2023-05-10T04:11:04.230Z,953.8939
2023-05-10T04:12:05.365Z,953.9131
2023-05-10T04:13:06.511Z,953.9061
2023-05-10T04:14:07.503Z,953.9108
2023-05-10T04:15:08.653Z,953.9039
2023-05-10T04:16:09.685Z,953.8754
2023-05-10T04:17:10.817Z,953.8715
2023-05-10T04:18:11.900Z,953.8677
2023-05-10T04:19:12.964Z,953.8654
2023-05-10T04:20:14.193Z,953.8592
2023-05-10T04:21:15.168Z,953.8546
2023-05-10T04:22:16.234Z,953.8369
2023-05-10T04:23:17.300Z,953.8239
2023-05-10T04:24:18.402Z,953.8185
2023-05-10T04:25:19.488Z,953.8162
2023-05-10T04:26:20.577Z,953.8115
2023-05-10T04:27:21.701Z,953.8392
2023-05-10T04:28:22.760Z,953.8646
2023-05-10T04:29:23.863Z,953.8685
2023-05-10T04:30:24.957Z,953.8823
2023-05-10T04:31:26.074Z,953.9046
2023-05-10T04:32:27.191Z,953.9315
2023-05-10T04:33:28.288Z,953.9569
2023-05-10T04:34:29.300Z,953.9661
2023-05-10T04:35:30.385Z,953.9808
2023-05-10T04:36:31.470Z,953.9930
2023-05-10T04:37:32.575Z,953.9815
2023-05-10T04:38:33.728Z,953.9646
2023-05-10T04:39:34.759Z,953.9569
2023-05-10T04:40:35.933Z,953.9777
2023-05-10T04:41:36.919Z,953.9992
2023-05-10T04:42:38.017Z,954.0108
2023-05-10T04:43:39.245Z,954.0215
2023-05-10T04:44:40.207Z,954.0100
2023-05-10T04:45:41.325Z,954.0162
2023-05-10T04:46:42.510Z,954.0231
2023-05-10T04:47:43.521Z,954.0361
2023-05-10T04:48:44.563Z,954.0453
2023-05-10T04:49:45.645Z,954.0569
2023-05-10T04:50:46.771Z,954.0715
2023-05-10T04:51:47.868Z,954.0754
2023-05-10T04:52:48.936Z,954.0923
2023-05-10T04:54:01.446Z,954.1077
2023-05-10T04:54:52.116Z,954.1200
2023-05-10T04:55:52.215Z,954.1146
2023-05-10T04:56:53.294Z,954.1246
2023-05-10T04:57:54.388Z,954.1262
2023-05-10T04:58:55.498Z,954.1246
2023-05-10T04:59:56.544Z,954.1200
2023-05-10T05:00:57.674Z,954.1362
2023-05-10T05:01:58.801Z,954.1500
2023-05-10T05:02:59.930Z,954.1715
2023-05-10T05:04:01.043Z,954.1708
2023-05-10T05:05:02.015Z,954.1761
2023-05-10T05:06:03.168Z,954.1769
2023-05-10T05:07:04.206Z,954.1730
2023-05-10T05:08:05.295Z,954.1592
2023-05-10T05:09:06.396Z,954.1700
2023-05-10T05:10:07.525Z,954.1754
2023-05-10T05:11:08.574Z,954.1823
2023-05-10T05:12:09.706Z,954.1877
2023-05-10T05:13:10.782Z,954.2054
2023-05-10T05:14:11.833Z,954.2115
2023-05-10T05:15:12.967Z,954.2261
2023-05-10T05:16:14.223Z,954.2315
2023-05-10T05:17:15.168Z,954.2308
2023-05-10T05:18:16.233Z,954.2515
2023-05-10T05:19:17.371Z,954.2677
2023-05-10T05:20:18.674Z,954.2747
2023-05-10T05:21:19.516Z,954.2923
2023-05-10T05:22:20.619Z,954.2969
2023-05-10T05:23:21.741Z,954.3077
2023-05-10T05:24:22.786Z,954.3223
2023-05-10T05:25:23.869Z,954.3277
2023-05-10T05:26:24.971Z,954.3377
2023-05-10T05:27:26.053Z,954.3400
2023-05-10T05:28:27.180Z,954.3546
2023-05-10T05:29:28.246Z,954.3723
2023-05-10T05:30:29.342Z,954.3969
2023-05-10T05:31:30.496Z,954.4023
2023-05-10T05:32:31.552Z,954.4023
2023-05-10T05:33:32.617Z,954.4131
2023-05-10T05:34:33.734Z,954.4192
2023-05-10T05:35:34.813Z,954.4277
2023-05-10T05:36:37.619Z,954.4438
2023-05-10T05:37:36.981Z,954.4415
2023-05-10T05:38:38.093Z,954.4315
2023-05-10T05:39:39.229Z,954.4370
2023-05-10T05:40:40.291Z,954.4470
2023-05-10T05:41:41.351Z,954.4547
2023-05-10T05:42:42.458Z,954.4554
2023-05-10T05:43:43.544Z,954.4354
2023-05-10T05:44:44.623Z,954.4431
2023-05-10T05:45:45.777Z,954.4308
2023-05-10T05:46:46.866Z,954.4185
2023-05-10T05:47:47.976Z,954.4185
2023-05-10T05:48:48.987Z,954.4200
2023-05-10T05:49:50.109Z,954.4031
2023-05-10T05:50:51.182Z,954.3947
2023-05-10T05:51:52.270Z,954.3947
2023-05-10T05:52:53.366Z,954.3877
2023-05-10T05:53:54.497Z,954.3947
2023-05-10T05:54:55.549Z,954.4308
2023-05-10T05:55:56.621Z,954.4615
2023-05-10T05:56:59.830Z,954.4823
2023-05-10T05:57:58.829Z,954.5046
2023-05-10T05:58:59.912Z,954.5154
2023-05-10T06:00:01.019Z,954.5231
2023-05-10T06:01:02.099Z,954.5215
2023-05-10T06:02:03.213Z,954.5231
2023-05-10T06:03:04.378Z,954.5215
2023-05-10T06:04:05.444Z,954.5292
2023-05-10T06:05:06.507Z,954.5269
2023-05-10T06:06:07.571Z,954.5269
2023-05-10T06:07:08.704Z,954.5400
2023-05-10T06:08:09.772Z,954.5354
2023-05-10T06:09:10.834Z,954.5331
2023-05-10T06:10:11.929Z,954.5461
2023-05-10T06:11:13.036Z,954.5685
2023-05-10T06:12:14.139Z,954.5770
2023-05-10T06:13:15.245Z,954.5815
2023-05-10T06:14:16.310Z,954.6038
2023-05-10T06:15:17.593Z,954.6477
2023-05-10T06:16:18.503Z,954.6746
2023-05-10T06:17:19.603Z,954.6962
2023-05-10T06:18:20.717Z,954.7139
2023-05-10T06:19:21.785Z,954.7246
2023-05-10T06:20:22.894Z,954.7415
2023-05-10T06:21:24.001Z,954.7577
2023-05-10T06:22:25.063Z,954.7523
2023-05-10T06:23:26.156Z,954.7715
2023-05-10T06:24:27.261Z,954.7885
2023-05-10T06:25:28.360Z,954.7892
2023-05-10T06:26:29.487Z,954.7961
2023-05-10T06:27:30.535Z,954.7892
2023-05-10T06:28:31.710Z,954.7892
2023-05-10T06:29:32.808Z,954.8030
2023-05-10T06:30:33.933Z,954.8185
2023-05-10T06:31:35.011Z,954.8285
2023-05-10T06:32:36.174Z,954.8646
2023-05-10T06:33:37.194Z,954.8523
2023-05-10T06:34:38.254Z,954.8669
2023-05-10T06:35:39.350Z,954.8954
2023-05-10T06:36:40.460Z,954.9254
2023-05-10T06:37:41.603Z,954.9370
2023-05-10T06:38:42.682Z,954.9523
2023-05-10T06:39:43.746Z,954.9492
2023-05-10T06:40:44.834Z,954.9531
2023-05-10T06:41:45.943Z,954.9562
2023-05-10T06:42:47.001Z,954.9554
2023-05-10T06:43:48.133Z,954.9485
2023-05-10T06:44:49.236Z,954.9569
2023-05-10T06:45:50.279Z,954.9738
2023-05-10T06:46:51.446Z,954.9592
2023-05-10T06:47:52.565Z,954.9508
2023-05-10T06:48:53.601Z,954.9354
2023-05-10T06:49:54.678Z,954.9554
2023-05-10T06:50:55.757Z,954.9554
2023-05-10T06:51:56.843Z,954.9508
2023-05-10T06:52:57.960Z,954.9362
2023-05-10T06:53:59.025Z,954.9254
2023-05-10T06:55:00.179Z,954.9185
2023-05-10T06:56:01.212Z,954.9069
2023-05-10T06:57:03.935Z,954.9092
2023-05-10T06:58:03.436Z,954.9200
2023-05-10T06:59:04.575Z,954.9269
2023-05-10T07:00:05.660Z,954.9523
2023-05-10T07:01:06.731Z,954.9547
2023-05-10T07:02:07.848Z,954.9539
2023-05-10T07:03:09.017Z,954.9431
2023-05-10T07:04:09.962Z,954.9269
2023-05-10T07:05:11.037Z,954.9285
2023-05-10T07:06:21.758Z,954.9285
2023-05-10T07:07:14.261Z,954.9238
2023-05-10T07:08:14.371Z,954.9215
2023-05-10T07:09:15.422Z,954.9254
2023-05-10T07:10:16.512Z,954.9169
2023-05-10T07:11:17.628Z,954.9039
2023-05-10T07:12:18.733Z,954.9084
2023-05-10T07:13:19.915Z,954.9215
2023-05-10T07:14:20.933Z,954.9161
2023-05-10T07:15:22.002Z,954.9123
2023-05-10T07:16:23.306Z,954.9269
2023-05-10T07:17:24.216Z,954.9492
2023-05-10T07:18:25.302Z,954.9577
2023-05-10T07:19:26.369Z,954.9669
2023-05-10T07:20:27.490Z,954.9785
2023-05-10T07:21:28.582Z,954.9800
2023-05-10T07:22:29.625Z,954.9946
2023-05-10T07:23:30.762Z,954.9923
2023-05-10T07:24:31.835Z,955.0031
2023-05-10T07:25:32.957Z,955.0170
2023-05-10T07:26:34.058Z,955.0323
2023-05-10T07:27:35.149Z,955.0377
2023-05-10T07:28:36.218Z,955.0423
2023-05-10T07:29:37.301Z,955.0530
2023-05-10T07:30:38.426Z,955.0662
2023-05-10T07:31:39.531Z,955.0677
2023-05-10T07:32:40.755Z,955.0854
2023-05-10T07:33:41.725Z,955.0900
2023-05-10T07:34:42.792Z,955.1053
2023-05-10T07:35:43.919Z,955.1192
2023-05-10T07:36:44.975Z,955.1238
2023-05-10T07:37:46.057Z,955.1138
2023-05-10T07:38:47.171Z,955.1115
2023-05-10T07:39:48.314Z,955.1053
2023-05-10T07:40:49.353Z,955.1131
2023-05-10T07:41:50.469Z,955.1331
2023-05-10T07:42:51.546Z,955.1208
2023-05-10T07:43:52.664Z,955.1200
2023-05-10T07:44:53.739Z,955.1138
2023-05-10T07:45:56.427Z,955.0862
2023-05-10T07:46:55.976Z,955.0900
2023-05-10T07:47:57.100Z,955.1008
2023-05-10T07:48:58.138Z,955.1046
2023-05-10T07:49:59.229Z,955.1354
2023-05-10T07:51:00.310Z,955.1400
2023-05-10T07:52:01.406Z,955.1308
2023-05-10T07:53:02.516Z,955.1370
2023-05-10T07:54:03.631Z,955.1508
2023-05-10T07:55:04.684Z,955.1600
2023-05-10T07:56:05.777Z,955.1646
2023-05-10T07:57:06.901Z,955.1577
2023-05-10T07:58:07.989Z,955.1539
2023-05-10T07:59:11.304Z,955.1546
2023-05-10T08:00:10.174Z,955.1946
2023-05-10T08:01:11.250Z,955.2115
2023-05-10T08:02:12.405Z,955.1992
2023-05-10T08:03:13.584Z,955.2077
2023-05-10T08:04:14.569Z,955.2223
2023-05-10T08:05:16.008Z,955.2177
2023-05-10T08:06:16.720Z,955.2115
2023-05-10T08:07:17.810Z,955.1900
2023-05-10T08:08:18.922Z,955.1900
2023-05-10T08:09:20.153Z,955.1923
2023-05-10T08:10:21.180Z,955.2008
2023-05-10T08:11:22.178Z,955.2085
2023-05-10T08:12:23.297Z,955.2100
2023-05-10T08:13:24.358Z,955.2338
2023-05-10T08:14:25.463Z,955.2700
2023-05-10T08:15:26.540Z,955.2546
2023-05-10T08:16:27.829Z,955.2477
2023-05-10T08:17:28.738Z,955.2430
2023-05-10T08:18:29.877Z,955.2446
2023-05-10T08:19:30.944Z,955.2338
2023-05-10T08:20:32.008Z,955.2423
2023-05-10T08:21:33.116Z,955.2446
2023-05-10T08:22:34.198Z,955.2423
2023-05-10T08:23:35.293Z,955.2269
2023-05-10T08:24:36.418Z,955.2323
2023-05-10T08:25:37.463Z,955.2238
2023-05-10T08:26:38.560Z,955.2261
2023-05-10T08:27:39.644Z,955.2423
2023-05-10T08:28:40.748Z,955.2846
2023-05-10T08:29:49.397Z,955.2762
2023-05-10T08:30:43.938Z,955.2477
2023-05-10T08:31:44.185Z,955.2438
2023-05-10T08:32:45.191Z,955.2338
2023-05-10T08:33:46.234Z,955.2500
2023-05-10T08:34:47.326Z,955.2670
2023-05-10T08:35:48.416Z,955.2615
2023-05-10T08:36:49.511Z,955.2800
2023-05-10T08:37:50.617Z,955.2777
2023-05-10T08:38:52.187Z,955.3138
2023-05-10T08:39:52.815Z,955.3347
2023-05-10T08:40:53.957Z,955.3315
2023-05-10T08:41:55.017Z,955.3231
2023-05-10T08:42:56.087Z,955.3354
2023-05-10T08:43:57.192Z,955.3377
2023-05-10T08:44:58.297Z,955.3400
2023-05-10T08:45:59.418Z,955.3592
2023-05-10T08:47:00.735Z,955.3638
2023-05-10T08:48:01.591Z,955.3839
2023-05-10T08:49:02.710Z,955.3654
2023-05-10T08:50:03.779Z,955.3654
2023-05-10T08:51:04.873Z,955.3823
2023-05-10T08:52:05.973Z,955.3947
2023-05-10T08:53:07.082Z,955.3762
2023-05-10T08:54:08.223Z,955.3823
2023-05-10T08:55:09.318Z,955.3738
2023-05-10T08:56:10.417Z,955.3915
2023-05-10T08:57:11.504Z,955.3939
2023-05-10T08:58:12.624Z,955.3908
2023-05-10T08:59:13.732Z,955.3962
2023-05-10T09:00:14.827Z,955.4269
2023-05-10T09:01:15.966Z,955.4492
2023-05-10T09:02:18.811Z,955.4446
2023-05-10T09:03:18.170Z,955.4292
2023-05-10T09:04:19.325Z,955.4215
2023-05-10T09:05:20.620Z,955.4292
2023-05-10T09:06:21.490Z,955.4277
2023-05-10T09:07:22.567Z,955.4515
2023-05-10T09:08:23.718Z,955.4569
2023-05-10T09:09:24.776Z,955.4654
2023-05-10T09:10:26.013Z,955.4761
2023-05-10T09:11:26.975Z,955.4753
2023-05-10T09:12:28.068Z,955.4892
2023-05-10T09:13:29.210Z,955.4738
2023-05-10T09:14:30.334Z,955.4792
2023-05-10T09:15:31.462Z,955.4915
2023-05-10T09:16:32.517Z,955.5146
2023-05-10T09:17:33.680Z,955.5131
2023-05-10T09:18:34.833Z,955.5200
2023-05-10T09:19:35.834Z,955.5369
2023-05-10T09:20:36.933Z,955.5323
2023-05-10T09:21:38.051Z,955.5408
2023-05-10T09:22:39.161Z,955.5523
2023-05-10T09:23:40.235Z,955.5638
2023-05-10T09:24:41.341Z,955.5677
2023-05-10T09:25:42.482Z,955.5600
2023-05-10T09:26:43.574Z,955.5416
2023-05-10T09:27:44.681Z,955.5308
2023-05-10T09:28:45.832Z,955.5269
2023-05-10T09:29:46.889Z,955.4769
2023-05-10T09:30:48.022Z,955.4823
2023-05-10T09:31:49.099Z,955.4761
2023-05-10T09:32:50.346Z,955.4892
2023-05-10T09:33:51.300Z,955.4969
2023-05-10T09:34:52.517Z,955.5208
2023-05-10T09:35:53.562Z,955.5131
2023-05-10T09:36:54.637Z,955.5269
2023-05-10T09:37:55.743Z,955.5223
2023-05-10T09:38:56.832Z,955.4954
2023-05-10T09:39:57.957Z,955.5277
2023-05-10T09:40:59.067Z,955.5623
2023-05-10T09:42:00.165Z,955.5569
2023-05-10T09:43:01.275Z,955.5592
2023-05-10T09:44:02.381Z,955.5692
2023-05-10T09:45:03.487Z,955.5815
2023-05-10T09:46:04.605Z,955.5692
2023-05-10T09:47:05.727Z,955.5662
2023-05-10T09:48:06.915Z,955.5477
2023-05-10T09:49:07.910Z,955.5339
2023-05-10T09:50:09.037Z,955.5223
2023-05-10T09:51:10.140Z,955.5269
2023-05-10T09:52:11.226Z,955.5247
2023-05-10T09:53:12.403Z,955.5308
2023-05-10T09:54:13.463Z,955.5262
2023-05-10T09:55:14.718Z,955.5269
2023-05-10T09:56:15.670Z,955.5247
2023-05-10T09:57:16.790Z,955.5239
2023-05-10T09:58:17.907Z,955.5100
2023-05-10T09:59:19.012Z,955.5154
2023-05-10T10:00:20.195Z,955.5054
2023-05-10T10:01:21.252Z,955.5000
2023-05-10T10:02:22.387Z,955.4992
2023-05-10T10:03:23.434Z,955.5139
2023-05-10T10:04:24.622Z,955.5269
2023-05-10T10:05:25.676Z,955.5346
2023-05-10T10:06:29.986Z,955.5446
2023-05-10T10:07:27.876Z,955.5469
2023-05-10T10:08:28.969Z,955.5308
2023-05-10T10:09:30.067Z,955.4861
2023-05-10T10:10:31.172Z,955.4769
2023-05-10T10:11:32.289Z,955.5085
2023-05-10T10:12:33.485Z,955.5331
2023-05-10T10:13:34.503Z,955.5369
2023-05-10T10:14:35.596Z,955.5331
2023-05-10T10:15:36.831Z,955.5477
2023-05-10T10:16:43.653Z,955.5485
2023-05-10T10:17:39.961Z,955.5339
2023-05-10T10:18:40.046Z,955.5177
2023-05-10T10:19:41.148Z,955.5146
2023-05-10T10:20:42.217Z,955.4992
2023-05-10T10:21:43.370Z,955.4869
2023-05-10T10:22:44.428Z,955.4923
2023-05-10T10:23:45.532Z,955.5092
2023-05-10T10:24:46.627Z,955.4892
2023-05-10T10:25:47.719Z,955.4669
2023-05-10T10:26:48.848Z,955.4661
2023-05-10T10:27:49.931Z,955.4408
2023-05-10T10:28:51.084Z,955.4146
2023-05-10T10:29:52.205Z,955.4077
2023-05-10T10:30:53.311Z,955.4100
2023-05-10T10:31:54.549Z,955.4153
2023-05-10T10:32:55.507Z,955.4223
2023-05-10T10:33:56.584Z,955.4231
2023-05-10T10:34:57.655Z,955.4100
2023-05-10T10:35:58.761Z,955.4269
2023-05-10T10:36:59.866Z,955.4330
2023-05-10T10:38:00.989Z,955.4370
2023-05-10T10:39:02.048Z,955.4346
2023-05-10T10:40:03.128Z,955.4354
2023-05-10T10:41:04.244Z,955.4261
2023-05-10T10:42:05.343Z,955.4230
2023-05-10T10:43:06.413Z,955.4269
2023-05-10T10:44:07.520Z,955.4462
2023-05-10T10:45:08.620Z,955.4423
2023-05-10T10:46:09.720Z,955.4246
2023-05-10T10:47:11.044Z,955.4200
2023-05-10T10:48:11.909Z,955.4362
2023-05-10T10:49:13.019Z,955.4354
2023-05-10T10:50:14.925Z,955.4562
2023-05-10T10:51:15.183Z,955.4753
2023-05-10T10:52:16.323Z,955.4938
2023-05-10T10:53:17.414Z,955.4946
2023-05-10T10:54:18.519Z,955.4823
2023-05-10T10:55:19.657Z,955.4646
2023-05-10T10:56:20.675Z,955.4654
2023-05-10T10:57:21.769Z,955.4400
2023-05-10T10:58:22.856Z,955.4123
2023-05-10T10:59:23.989Z,955.3777
2023-05-10T11:00:25.067Z,955.3646
2023-05-10T11:01:26.165Z,955.3523
2023-05-10T11:02:27.715Z,955.3454
2023-05-10T11:03:28.361Z,955.3300
2023-05-10T11:04:29.511Z,955.3162
2023-05-10T11:05:30.547Z,955.3277
2023-05-10T11:06:31.656Z,955.3300
2023-05-10T11:07:32.768Z,955.3431
2023-05-10T11:08:35.714Z,955.3592
2023-05-10T11:09:34.920Z,955.3677
2023-05-10T11:10:36.028Z,955.3785
2023-05-10T11:11:37.117Z,955.3831
2023-05-10T11:12:38.220Z,955.3777
2023-05-10T11:13:39.378Z,955.3377
2023-05-10T11:14:40.403Z,955.3308
2023-05-10T11:15:41.581Z,955.3515
2023-05-10T11:16:42.597Z,955.3592
2023-05-10T11:17:43.739Z,955.3754
2023-05-10T11:18:44.933Z,955.3608
2023-05-10T11:19:45.887Z,955.3377
2023-05-10T11:20:46.998Z,955.3315
2023-05-10T11:21:48.087Z,955.3339
2023-05-10T11:22:49.185Z,955.3446
2023-05-10T11:23:50.275Z,955.3431
2023-05-10T11:24:51.371Z,955.3469
2023-05-10T11:25:52.467Z,955.3508
2023-05-10T11:26:53.567Z,955.3692
2023-05-10T11:27:54.703Z,955.3630
2023-05-10T11:28:55.750Z,955.3715
2023-05-10T11:29:56.861Z,955.3738
2023-05-10T11:30:57.926Z,955.3638
2023-05-10T11:31:59.023Z,955.3500
2023-05-10T11:33:00.192Z,955.3285
2023-05-10T11:34:01.223Z,955.3262
2023-05-10T11:35:02.308Z,955.3331
2023-05-10T11:36:03.381Z,955.3208
2023-05-10T11:37:04.493Z,955.3130
2023-05-10T11:38:05.591Z,955.2839
2023-05-10T11:39:06.671Z,955.3085
2023-05-10T11:40:07.775Z,955.3038
2023-05-10T11:41:08.855Z,955.3100
2023-05-10T11:42:10.049Z,955.3115
2023-05-10T11:43:11.060Z,955.3085
2023-05-10T11:44:12.160Z,955.2992
2023-05-10T11:45:13.242Z,955.2816
2023-05-10T11:46:14.344Z,955.2662
2023-05-10T11:47:15.423Z,955.2546
2023-05-10T11:48:16.613Z,955.2515
2023-05-10T11:49:17.618Z,955.2692
2023-05-10T11:50:18.993Z,955.2531
2023-05-10T11:51:19.800Z,955.2639
2023-05-10T11:52:20.922Z,955.2400
2023-05-10T11:53:23.270Z,955.2369
2023-05-10T11:54:23.124Z,955.2277
2023-05-10T11:55:24.247Z,955.2154
2023-05-10T11:56:25.333Z,955.2292
2023-05-10T11:57:26.382Z,955.2515